Time;durP1;ratioP1;P1;durP2;ratioP2;P2;SDS_P1;SDS_P2;PMS_P1;PMS_P2;Temp;Humidity;BMP_temperature;BMP_pressure;BME280_temperature;BME280_humidity;BME280_pressure;Samples;Min_cycle;Max_cycle;Signal;HPM_P1;HPM_P2
2021/12/26 00:00:18;;;;;;;137.55;36.45;;;;;;;;;;4957347;28;20031;-69
2021/12/26 00:02:44;;;;;;;133.98;36.20;;;;;;;;;;4960716;28;20054;-69
2021/12/26 00:05:11;;;;;;;134.25;37.47;;;;;;;;;;4958280;28;20034;-69
2021/12/26 00:07:37;;;;;;;143.68;36.35;;;;;;;;;;4957407;28;20031;-69
2021/12/26 00:10:07;;;;;;;150.00;38.50;;;;;;;;;;4960755;28;20293;-69
2021/12/26 00:12:33;;;;;;;165.10;40.10;;;;;;;;;;4951356;28;20388;-69
2021/12/26 00:14:59;;;;;;;216.25;44.42;;;;;;;;;;4955632;28;20031;-69
2021/12/26 00:17:25;;;;;;;353.88;42.88;;;;;;;;;;4957602;28;20217;-69
2021/12/26 00:19:51;;;;;;;168.82;38.85;;;;;;;;;;4958905;28;20461;-69
2021/12/26 00:22:16;;;;;;;155.35;36.65;;;;;;;;;;4957816;28;20054;-69
2021/12/26 00:24:42;;;;;;;207.45;38.70;;;;;;;;;;4951758;28;20391;-69
2021/12/26 00:27:08;;;;;;;233.98;39.33;;;;;;;;;;4956097;28;20035;-69
2021/12/26 00:29:33;;;;;;;201.18;40.80;;;;;;;;;;4950644;28;20129;-69
2021/12/26 00:31:59;;;;;;;173.23;35.75;;;;;;;;;;4958294;28;20034;-69
2021/12/26 00:34:25;;;;;;;164.05;37.47;;;;;;;;;;4972202;28;20613;-69
2021/12/26 00:36:50;;;;;;;163.07;37.05;;;;;;;;;;4958121;28;20098;-69
2021/12/26 00:39:16;;;;;;;225.90;42.03;;;;;;;;;;4955740;28;20561;-69
2021/12/26 00:41:43;;;;;;;189.98;38.53;;;;;;;;;;4955781;28;20045;-69
2021/12/26 00:44:10;;;;;;;237.40;45.28;;;;;;;;;;4963643;28;20037;-69
2021/12/26 00:46:38;;;;;;;248.13;42.78;;;;;;;;;;4952283;28;20039;-69
2021/12/26 00:49:04;;;;;;;229.98;40.95;;;;;;;;;;4954800;28;20513;-69
2021/12/26 00:51:30;;;;;;;219.57;41.33;;;;;;;;;;4958952;28;20039;-69
2021/12/26 00:53:56;;;;;;;227.27;41.08;;;;;;;;;;4951196;28;20089;-69
2021/12/26 00:56:22;;;;;;;214.90;42.38;;;;;;;;;;4955292;28;20465;-68
2021/12/26 00:58:48;;;;;;;357.95;45.92;;;;;;;;;;4970599;28;20160;-69
2021/12/26 01:01:14;;;;;;;217.40;41.30;;;;;;;;;;4951415;28;20038;-69
2021/12/26 01:03:42;;;;;;;221.32;40.08;;;;;;;;;;4957915;28;20148;-69
2021/12/26 01:06:08;;;;;;;339.58;44.63;;;;;;;;;;4960646;28;20170;-69
2021/12/26 01:08:39;;;;;;;389.60;46.42;;;;;;;;;;4957860;28;20038;-69
2021/12/26 01:11:25;;;;;;;378.23;45.28;;;;;;;;;;4955526;28;20093;-69
2021/12/26 01:13:52;;;;;;;515.72;49.05;;;;;;;;;;4962350;28;20485;-69
2021/12/26 01:16:40;;;;;;;528.83;48.08;;;;;;;;;;4974309;28;20039;-69
2021/12/26 01:19:15;;;;;;;358.25;42.00;;;;;;;;;;4955378;28;20365;-69
2021/12/26 01:21:43;;;;;;;367.08;43.85;;;;;;;;;;4958603;28;20035;-69
2021/12/26 01:24:14;;;;;;;245.95;39.72;;;;;;;;;;4941813;28;20431;-69
2021/12/26 01:26:41;;;;;;;293.67;42.17;;;;;;;;;;4953467;28;20352;-69
2021/12/26 01:29:07;;;;;;;311.70;44.25;;;;;;;;;;4952827;28;20069;-69
2021/12/26 01:31:36;;;;;;;185.50;37.42;;;;;;;;;;4954512;28;20043;-69
2021/12/26 01:34:24;;;;;;;219.60;39.35;;;;;;;;;;4956381;28;20034;-69
2021/12/26 01:37:11;;;;;;;176.85;37.85;;;;;;;;;;4956824;28;20062;-69
2021/12/26 01:39:57;;;;;;;168.13;35.13;;;;;;;;;;4957456;28;20505;-69
2021/12/26 01:42:35;;;;;;;219.88;38.00;;;;;;;;;;4958065;28;20565;-69
2021/12/26 01:45:16;;;;;;;160.90;35.35;;;;;;;;;;4964219;28;20130;-69
2021/12/26 01:48:00;;;;;;;206.60;40.13;;;;;;;;;;4941102;28;20062;-69
2021/12/26 01:50:27;;;;;;;212.43;37.28;;;;;;;;;;4958016;28;20039;-69
2021/12/26 01:52:53;;;;;;;225.75;37.25;;;;;;;;;;4947627;28;20050;-69
2021/12/26 01:55:36;;;;;;;178.30;36.50;;;;;;;;;;4958303;28;20043;-69
2021/12/26 01:58:03;;;;;;;277.83;36.70;;;;;;;;;;4949144;28;20042;-69
2021/12/26 02:00:30;;;;;;;176.82;36.20;;;;;;;;;;4949880;28;20031;-69
2021/12/26 02:02:57;;;;;;;206.43;37.38;;;;;;;;;;4954187;28;20031;-69
2021/12/26 02:05:23;;;;;;;186.77;37.95;;;;;;;;;;4957160;28;20057;-69
2021/12/26 02:07:52;;;;;;;197.70;35.53;;;;;;;;;;4950300;28;20050;-69
2021/12/26 02:10:18;;;;;;;204.05;36.10;;;;;;;;;;4949763;28;20391;-69
2021/12/26 02:12:44;;;;;;;177.07;36.78;;;;;;;;;;4953978;28;20035;-69
2021/12/26 02:15:10;;;;;;;177.85;35.22;;;;;;;;;;4957802;28;20446;-69
2021/12/26 02:17:40;;;;;;;160.40;35.30;;;;;;;;;;4953636;28;20049;-69
2021/12/26 02:20:25;;;;;;;191.85;36.95;;;;;;;;;;4956160;28;20113;-69
2021/12/26 02:22:58;;;;;;;166.00;33.72;;;;;;;;;;4955086;28;20567;-69
2021/12/26 02:25:30;;;;;;;173.32;35.25;;;;;;;;;;4947035;29;20065;-69
2021/12/26 02:27:56;;;;;;;199.95;35.30;;;;;;;;;;4968143;28;20033;-69
2021/12/26 02:30:23;;;;;;;170.57;35.08;;;;;;;;;;4963902;28;20027;-69
2021/12/26 02:32:52;;;;;;;165.25;36.00;;;;;;;;;;4948219;29;20272;-69
2021/12/26 02:35:20;;;;;;;141.65;32.47;;;;;;;;;;4946878;29;20109;-69
2021/12/26 02:37:47;;;;;;;153.10;32.78;;;;;;;;;;4950774;28;20043;-69
2021/12/26 02:40:14;;;;;;;145.93;33.28;;;;;;;;;;4948548;28;20446;-68
2021/12/26 02:42:40;;;;;;;139.70;32.45;;;;;;;;;;4964282;28;20493;-68
2021/12/26 02:45:06;;;;;;;130.52;32.30;;;;;;;;;;4948470;28;20037;-68
2021/12/26 02:47:38;;;;;;;136.75;31.50;;;;;;;;;;4953928;28;20035;-69
2021/12/26 02:50:16;;;;;;;152.68;34.33;;;;;;;;;;4940388;29;20028;-69
2021/12/26 02:52:43;;;;;;;151.07;32.53;;;;;;;;;;4964684;28;20050;-69
2021/12/26 02:55:10;;;;;;;141.95;34.45;;;;;;;;;;4957407;28;20089;-68
2021/12/26 02:57:36;;;;;;;145.50;33.53;;;;;;;;;;4951245;28;20486;-68
2021/12/26 03:00:09;;;;;;;154.75;33.00;;;;;;;;;;4947084;29;20090;-69
2021/12/26 03:02:34;;;;;;;153.80;35.25;;;;;;;;;;4964423;28;20114;-68
2021/12/26 03:05:04;;;;;;;145.77;32.53;;;;;;;;;;4954535;28;20498;-69
2021/12/26 03:07:30;;;;;;;175.48;33.95;;;;;;;;;;4951197;28;20062;-68
2021/12/26 03:09:59;;;;;;;159.23;35.03;;;;;;;;;;4948300;29;20039;-68
2021/12/26 03:12:27;;;;;;;155.45;34.10;;;;;;;;;;4949612;29;20135;-68
2021/12/26 03:14:53;;;;;;;157.95;34.72;;;;;;;;;;4947936;29;20042;-68
2021/12/26 03:17:19;;;;;;;166.63;35.88;;;;;;;;;;4964509;28;20126;-68
2021/12/26 03:19:45;;;;;;;174.50;35.13;;;;;;;;;;4949902;28;20027;-68
2021/12/26 03:22:11;;;;;;;156.88;34.50;;;;;;;;;;4952624;28;20043;-69
2021/12/26 03:24:38;;;;;;;175.10;37.08;;;;;;;;;;4955224;28;20089;-68
2021/12/26 03:27:05;;;;;;;170.10;35.08;;;;;;;;;;4946086;29;20447;-69
2021/12/26 03:29:33;;;;;;;169.18;35.50;;;;;;;;;;4956740;28;21909;-68
2021/12/26 03:31:59;;;;;;;190.40;35.38;;;;;;;;;;4952746;28;20041;-68
2021/12/26 03:34:25;;;;;;;168.20;34.45;;;;;;;;;;4948034;28;20406;-68
2021/12/26 03:36:52;;;;;;;155.70;34.42;;;;;;;;;;4964365;28;20494;-68
2021/12/26 03:39:22;;;;;;;171.35;34.38;;;;;;;;;;4958656;28;20054;-68
2021/12/26 03:41:49;;;;;;;163.65;34.75;;;;;;;;;;4952947;28;20446;-68
2021/12/26 03:44:16;;;;;;;179.68;34.67;;;;;;;;;;4948024;28;20122;-68
2021/12/26 03:46:43;;;;;;;198.18;36.10;;;;;;;;;;4948235;28;20114;-68
2021/12/26 03:49:10;;;;;;;166.10;32.38;;;;;;;;;;4950877;28;20035;-68
2021/12/26 03:51:36;;;;;;;181.98;34.90;;;;;;;;;;4952141;28;20042;-68
2021/12/26 03:54:05;;;;;;;221.55;37.67;;;;;;;;;;4963949;28;20039;-68
2021/12/26 03:56:31;;;;;;;205.43;36.10;;;;;;;;;;4948171;29;20039;-68
2021/12/26 03:59:08;;;;;;;165.50;33.97;;;;;;;;;;4946752;28;20541;-68
2021/12/26 04:01:34;;;;;;;160.00;33.20;;;;;;;;;;4947901;28;20031;-68
2021/12/26 04:04:00;;;;;;;180.52;35.97;;;;;;;;;;4946312;28;20039;-68
2021/12/26 04:06:26;;;;;;;169.13;33.45;;;;;;;;;;4948677;28;20098;-68
2021/12/26 04:08:52;;;;;;;167.70;35.60;;;;;;;;;;4949858;28;20043;-68
2021/12/26 04:11:17;;;;;;;180.75;34.90;;;;;;;;;;4951960;28;20035;-68
2021/12/26 04:13:44;;;;;;;174.68;33.15;;;;;;;;;;4951518;28;20125;-68
2021/12/26 04:16:11;;;;;;;199.27;39.53;;;;;;;;;;4965781;28;20722;-68
2021/12/26 04:18:37;;;;;;;183.75;37.08;;;;;;;;;;4977760;28;20031;-68
2021/12/26 04:21:05;;;;;;;229.00;38.72;;;;;;;;;;4953386;28;20061;-68
2021/12/26 04:23:35;;;;;;;246.02;37.47;;;;;;;;;;4947775;28;20044;-68
2021/12/26 04:26:01;;;;;;;228.80;39.95;;;;;;;;;;4943835;29;20125;-68
2021/12/26 04:28:27;;;;;;;218.40;39.97;;;;;;;;;;4951062;28;20102;-68
2021/12/26 04:30:53;;;;;;;178.02;36.38;;;;;;;;;;4950444;29;20106;-68
2021/12/26 04:33:20;;;;;;;203.13;37.08;;;;;;;;;;4951100;28;20047;-68
2021/12/26 04:35:46;;;;;;;168.88;35.42;;;;;;;;;;4959439;28;20045;-68
2021/12/26 04:38:13;;;;;;;208.57;39.55;;;;;;;;;;4952656;28;20537;-68
2021/12/26 04:40:40;;;;;;;204.68;39.33;;;;;;;;;;4949245;29;20067;-68
2021/12/26 04:43:26;;;;;;;197.57;38.25;;;;;;;;;;4963566;28;20058;-68
2021/12/26 04:46:09;;;;;;;183.50;36.65;;;;;;;;;;4950960;29;20380;-68
2021/12/26 04:48:57;;;;;;;198.07;37.10;;;;;;;;;;4948996;29;20047;-68
2021/12/26 04:51:23;;;;;;;206.52;37.80;;;;;;;;;;4950025;28;20575;-68
2021/12/26 04:53:55;;;;;;;224.07;42.08;;;;;;;;;;4952260;28;20051;-68
2021/12/26 04:56:20;;;;;;;202.85;39.45;;;;;;;;;;4950607;29;20071;-68
2021/12/26 04:58:47;;;;;;;209.32;38.22;;;;;;;;;;4950709;28;20035;-68
2021/12/26 05:01:12;;;;;;;264.67;39.28;;;;;;;;;;4951639;28;20476;-68
2021/12/26 05:03:40;;;;;;;175.95;35.70;;;;;;;;;;4952434;28;20042;-68
2021/12/26 05:06:06;;;;;;;214.38;38.17;;;;;;;;;;4953334;28;20053;-68
2021/12/26 05:08:33;;;;;;;195.05;37.60;;;;;;;;;;4956734;28;20040;-68
2021/12/26 05:10:59;;;;;;;228.32;37.63;;;;;;;;;;4956618;28;20062;-68
2021/12/26 05:13:24;;;;;;;176.70;35.13;;;;;;;;;;4960745;28;20035;-68
2021/12/26 05:15:50;;;;;;;214.95;38.50;;;;;;;;;;4955834;28;20047;-68
2021/12/26 05:18:16;;;;;;;234.80;40.97;;;;;;;;;;4954040;28;20055;-68
2021/12/26 05:20:44;;;;;;;197.93;37.42;;;;;;;;;;4950211;29;20023;-68
2021/12/26 05:23:10;;;;;;;239.80;40.50;;;;;;;;;;4966228;28;20090;-68
2021/12/26 05:25:36;;;;;;;245.27;41.38;;;;;;;;;;4966182;28;20039;-68
2021/12/26 05:28:02;;;;;;;198.43;40.05;;;;;;;;;;4960185;28;20494;-68
2021/12/26 05:30:28;;;;;;;181.80;35.42;;;;;;;;;;4963301;28;20032;-68
2021/12/26 05:33:12;;;;;;;206.07;37.00;;;;;;;;;;4949093;28;20070;-68
2021/12/26 05:35:38;;;;;;;215.45;41.13;;;;;;;;;;4950630;28;20610;-68
2021/12/26 05:38:03;;;;;;;258.17;40.90;;;;;;;;;;4955557;28;20114;-68
2021/12/26 05:40:30;;;;;;;231.52;42.25;;;;;;;;;;4954895;28;20494;-68
2021/12/26 05:42:55;;;;;;;215.38;38.45;;;;;;;;;;4951208;28;20062;-68
2021/12/26 05:45:21;;;;;;;220.60;40.22;;;;;;;;;;4954462;28;20043;-68
2021/12/26 05:48:08;;;;;;;197.63;37.47;;;;;;;;;;4948076;29;20046;-68
2021/12/26 05:50:34;;;;;;;195.05;36.03;;;;;;;;;;4965223;28;20043;-68
2021/12/26 05:53:00;;;;;;;261.55;42.15;;;;;;;;;;4948245;28;20443;-68
2021/12/26 05:55:26;;;;;;;220.48;42.35;;;;;;;;;;4954458;28;20510;-68
2021/12/26 05:57:53;;;;;;;205.10;39.35;;;;;;;;;;4949718;28;20068;-68
2021/12/26 06:00:20;;;;;;;214.88;39.95;;;;;;;;;;4948544;29;20399;-68
2021/12/26 06:02:46;;;;;;;216.55;38.35;;;;;;;;;;4951585;28;20046;-68
2021/12/26 06:05:12;;;;;;;210.35;38.35;;;;;;;;;;4957066;28;20062;-68
2021/12/26 06:07:38;;;;;;;218.20;41.05;;;;;;;;;;4949069;29;20071;-68
2021/12/26 06:10:05;;;;;;;223.10;39.22;;;;;;;;;;4950291;29;20039;-68
2021/12/26 06:12:32;;;;;;;214.17;41.57;;;;;;;;;;4964355;28;20557;-68
2021/12/26 06:14:58;;;;;;;195.07;38.05;;;;;;;;;;4949958;28;20035;-68
2021/12/26 06:17:25;;;;;;;201.27;37.17;;;;;;;;;;4965443;28;20043;-68
2021/12/26 06:20:17;;;;;;;180.60;35.25;;;;;;;;;;4932293;29;20687;-68
2021/12/26 06:22:53;;;;;;;156.20;32.13;;;;;;;;;;4956047;28;20101;-68
2021/12/26 06:25:40;;;;;;;162.32;32.30;;;;;;;;;;4939220;29;20047;-68
2021/12/26 06:28:25;;;;;;;172.05;32.35;;;;;;;;;;4947967;28;20519;-69
2021/12/26 06:31:09;;;;;;;166.02;33.88;;;;;;;;;;4952901;28;20034;-69
2021/12/26 06:33:54;;;;;;;171.30;34.55;;;;;;;;;;4948568;28;20115;-68
2021/12/26 06:36:38;;;;;;;177.95;35.20;;;;;;;;;;4947200;29;20571;-68
2021/12/26 06:39:22;;;;;;;188.05;37.17;;;;;;;;;;4951796;28;20590;-68
2021/12/26 06:42:06;;;;;;;200.75;37.15;;;;;;;;;;4947547;29;20517;-68
2021/12/26 06:44:50;;;;;;;198.15;36.08;;;;;;;;;;4949158;28;20106;-68
2021/12/26 06:47:26;;;;;;;174.68;36.47;;;;;;;;;;4954272;28;20106;-69
2021/12/26 06:49:52;;;;;;;172.23;33.70;;;;;;;;;;4949255;28;20038;-69
2021/12/26 06:52:19;;;;;;;174.63;34.85;;;;;;;;;;4947760;29;20134;-69
2021/12/26 06:54:47;;;;;;;148.13;32.28;;;;;;;;;;4954262;28;20078;-69
2021/12/26 06:57:13;;;;;;;163.77;32.95;;;;;;;;;;4954348;28;20039;-68
2021/12/26 06:59:38;;;;;;;152.77;32.60;;;;;;;;;;4948819;28;20031;-67
2021/12/26 07:02:05;;;;;;;157.30;32.45;;;;;;;;;;4947123;29;20050;-67
2021/12/26 07:05:00;;;;;;;157.70;33.53;;;;;;;;;;4955456;28;20039;-67
2021/12/26 07:07:35;;;;;;;183.15;35.90;;;;;;;;;;4964638;28;20070;-67
2021/12/26 07:10:02;;;;;;;162.43;32.58;;;;;;;;;;4948242;29;20106;-67
2021/12/26 07:12:29;;;;;;;164.05;34.20;;;;;;;;;;4963455;28;20043;-67
2021/12/26 07:15:07;;;;;;;172.15;33.80;;;;;;;;;;4954730;28;20043;-67
2021/12/26 07:17:39;;;;;;;165.32;32.50;;;;;;;;;;4970782;28;20045;-67
2021/12/26 07:20:06;;;;;;;150.32;32.75;;;;;;;;;;4954196;28;20367;-67
2021/12/26 07:22:50;;;;;;;148.40;32.65;;;;;;;;;;4956703;28;20057;-67
2021/12/26 07:25:16;;;;;;;133.32;30.98;;;;;;;;;;4957588;28;20049;-67
2021/12/26 07:27:42;;;;;;;136.57;30.85;;;;;;;;;;4948125;28;20507;-67
2021/12/26 07:30:26;;;;;;;134.10;29.50;;;;;;;;;;4947703;28;20062;-67
2021/12/26 07:32:52;;;;;;;114.38;26.52;;;;;;;;;;4948683;29;20053;-67
2021/12/26 07:35:18;;;;;;;125.25;28.85;;;;;;;;;;4959998;28;20654;-67
2021/12/26 07:37:45;;;;;;;135.50;30.13;;;;;;;;;;4975297;28;20043;-67
2021/12/26 07:40:11;;;;;;;119.20;28.13;;;;;;;;;;4945478;29;20505;-67
2021/12/26 07:42:38;;;;;;;113.78;29.10;;;;;;;;;;4941836;28;20047;-67
2021/12/26 07:45:22;;;;;;;111.18;29.10;;;;;;;;;;4944843;28;20581;-67
2021/12/26 07:47:51;;;;;;;;;;;;;;;;;;4956020;28;20041;-67
2021/12/26 07:50:17;;;;;;;112.85;29.63;;;;;;;;;;4949870;29;19919;-67
2021/12/26 07:53:18;;;;;;;128.63;31.17;;;;;;;;;;4886334;29;20052;-67
2021/12/26 07:56:03;;;;;;;126.20;30.25;;;;;;;;;;4951751;28;20407;-67
2021/12/26 07:58:48;;;;;;;135.73;30.80;;;;;;;;;;4952766;28;20050;-67
2021/12/26 08:01:32;;;;;;;116.53;30.38;;;;;;;;;;4950486;28;20042;-67
2021/12/26 08:04:24;;;;;;;118.25;31.73;;;;;;;;;;4962555;28;20116;-67
2021/12/26 08:06:53;;;;;;;125.40;31.23;;;;;;;;;;4953024;29;20479;-67
2021/12/26 08:09:19;;;;;;;103.35;29.50;;;;;;;;;;4952862;28;20042;-67
2021/12/26 08:11:45;;;;;;;109.50;29.73;;;;;;;;;;4950330;28;20125;-67
2021/12/26 08:14:11;;;;;;;111.88;29.48;;;;;;;;;;4960022;28;20117;-67
2021/12/26 08:16:37;;;;;;;87.45;26.88;;;;;;;;;;4952484;29;20039;-67
2021/12/26 08:19:03;;;;;;;89.88;27.38;;;;;;;;;;4952412;28;20035;-67
2021/12/26 08:21:29;;;;;;;87.90;27.45;;;;;;;;;;4952201;28;20023;-67
2021/12/26 08:23:55;;;;;;;87.38;27.80;;;;;;;;;;4957572;28;20039;-67
2021/12/26 08:26:21;;;;;;;71.72;27.88;;;;;;;;;;4952217;28;20040;-67
2021/12/26 08:28:46;;;;;;;83.45;27.75;;;;;;;;;;4951457;28;20035;-67
2021/12/26 08:31:14;;;;;;;71.47;25.33;;;;;;;;;;4956903;28;20042;-67
2021/12/26 08:33:40;;;;;;;71.75;25.65;;;;;;;;;;4952524;28;20039;-67
2021/12/26 08:36:06;;;;;;;65.25;26.23;;;;;;;;;;4952583;28;20046;-67
2021/12/26 08:38:32;;;;;;;55.85;26.20;;;;;;;;;;4952470;28;20145;-67
2021/12/26 08:40:58;;;;;;;47.65;23.50;;;;;;;;;;4958272;28;20154;-68
2021/12/26 08:43:24;;;;;;;46.42;23.58;;;;;;;;;;4952292;28;20146;-68
2021/12/26 08:45:50;;;;;;;49.33;24.48;;;;;;;;;;4951964;28;20067;-68
2021/12/26 08:48:17;;;;;;;47.42;25.00;;;;;;;;;;4953936;28;20080;-68
2021/12/26 08:50:43;;;;;;;44.20;23.33;;;;;;;;;;4951898;28;20046;-67
2021/12/26 08:53:10;;;;;;;35.92;24.20;;;;;;;;;;4952531;29;20031;-67
2021/12/26 08:55:36;;;;;;;33.70;23.38;;;;;;;;;;4955888;28;20395;-67
2021/12/26 08:58:05;;;;;;;33.78;21.92;;;;;;;;;;4954449;28;20039;-68
2021/12/26 09:00:32;;;;;;;32.10;20.92;;;;;;;;;;4947019;28;20070;-68
2021/12/26 09:02:58;;;;;;;27.73;20.58;;;;;;;;;;4953496;28;20038;-68
2021/12/26 09:05:24;;;;;;;28.20;20.77;;;;;;;;;;4952290;28;20070;-67
2021/12/26 09:07:50;;;;;;;27.60;20.95;;;;;;;;;;4949952;28;20145;-68
2021/12/26 09:10:15;;;;;;;26.50;19.33;;;;;;;;;;4949864;28;20118;-68
2021/12/26 09:12:41;;;;;;;24.05;18.30;;;;;;;;;;4948369;28;20031;-67
2021/12/26 09:15:09;;;;;;;23.92;19.23;;;;;;;;;;4953608;28;20043;-67
2021/12/26 09:17:34;;;;;;;29.17;19.55;;;;;;;;;;4964321;28;20054;-67
2021/12/26 09:20:00;;;;;;;72.18;42.08;;;;;;;;;;4949021;28;20409;-67
2021/12/26 09:22:26;;;;;;;26.00;21.15;;;;;;;;;;4955666;28;20074;-67
2021/12/26 09:24:52;;;;;;;24.38;20.05;;;;;;;;;;4949202;29;20081;-67
2021/12/26 09:27:18;;;;;;;23.13;19.13;;;;;;;;;;4947939;28;20050;-67
2021/12/26 09:29:45;;;;;;;28.27;19.50;;;;;;;;;;4946419;29;20047;-68
2021/12/26 09:32:11;;;;;;;18.73;16.75;;;;;;;;;;4949386;28;20061;-67
2021/12/26 09:34:37;;;;;;;22.17;18.48;;;;;;;;;;4949099;28;20478;-67
2021/12/26 09:37:05;;;;;;;22.27;19.20;;;;;;;;;;4947195;28;20046;-67
2021/12/26 09:39:31;;;;;;;24.33;19.92;;;;;;;;;;4948626;29;20074;-67
2021/12/26 09:41:57;;;;;;;25.85;19.45;;;;;;;;;;4948609;28;20039;-68
2021/12/26 09:44:23;;;;;;;25.23;18.95;;;;;;;;;;4947876;28;20049;-67
2021/12/26 09:46:50;;;;;;;20.40;17.75;;;;;;;;;;4951384;28;20441;-67
2021/12/26 09:49:16;;;;;;;23.60;18.60;;;;;;;;;;4950045;28;20034;-67
2021/12/26 09:51:41;;;;;;;24.45;18.88;;;;;;;;;;4952532;28;20035;-67
2021/12/26 09:54:08;;;;;;;22.75;18.88;;;;;;;;;;4954518;28;20042;-68
2021/12/26 09:56:34;;;;;;;19.58;17.48;;;;;;;;;;4946556;28;20058;-68
2021/12/26 09:59:06;;;;;;;20.42;18.10;;;;;;;;;;4949451;28;20089;-67
2021/12/26 10:01:38;;;;;;;19.70;17.63;;;;;;;;;;4947376;29;20046;-67
2021/12/26 10:04:25;;;;;;;18.38;16.45;;;;;;;;;;4947799;29;20043;-67
2021/12/26 10:07:14;;;;;;;20.50;17.83;;;;;;;;;;4949759;28;20046;-67
2021/12/26 10:09:48;;;;;;;19.52;17.42;;;;;;;;;;4947221;29;20043;-67
2021/12/26 10:12:15;;;;;;;17.10;15.40;;;;;;;;;;4948843;29;20050;-66
2021/12/26 10:14:43;;;;;;;18.88;16.92;;;;;;;;;;4951320;28;20050;-67
2021/12/26 10:17:13;;;;;;;24.27;18.20;;;;;;;;;;4949918;28;20046;-67
2021/12/26 10:19:43;;;;;;;17.05;15.35;;;;;;;;;;4948588;28;20042;-67
2021/12/26 10:22:10;;;;;;;23.77;18.58;;;;;;;;;;4941054;28;20042;-66
2021/12/26 10:24:39;;;;;;;17.77;15.88;;;;;;;;;;4947514;28;20090;-67
2021/12/26 10:27:14;;;;;;;18.95;16.20;;;;;;;;;;4949031;28;20036;-67
2021/12/26 10:29:49;;;;;;;23.58;16.45;;;;;;;;;;4943922;28;20039;-67
2021/12/26 10:32:20;;;;;;;17.05;15.45;;;;;;;;;;4955762;28;20042;-67
2021/12/26 10:34:58;;;;;;;18.08;16.10;;;;;;;;;;4947537;28;20039;-67
2021/12/26 10:37:36;;;;;;;17.38;15.68;;;;;;;;;;4944393;29;20103;-67
2021/12/26 10:40:12;;;;;;;19.65;17.58;;;;;;;;;;4949487;28;20046;-67
2021/12/26 10:42:40;;;;;;;17.42;15.70;;;;;;;;;;4946395;28;20078;-68
2021/12/26 10:45:10;;;;;;;17.55;15.88;;;;;;;;;;4962475;28;20380;-67
2021/12/26 10:47:39;;;;;;;17.40;15.70;;;;;;;;;;4949445;28;20455;-67
2021/12/26 10:50:19;;;;;;;22.52;18.08;;;;;;;;;;4943424;28;20031;-68
2021/12/26 10:52:57;;;;;;;27.45;20.77;;;;;;;;;;4942966;29;20457;-67
2021/12/26 10:55:28;;;;;;;16.10;14.63;;;;;;;;;;4944671;28;20039;-68
2021/12/26 10:57:54;;;;;;;14.68;13.43;;;;;;;;;;4949869;28;20062;-68
2021/12/26 11:00:23;;;;;;;16.38;14.90;;;;;;;;;;4944619;28;20066;-68
2021/12/26 11:02:53;;;;;;;17.38;15.55;;;;;;;;;;4947432;28;20031;-67
2021/12/26 11:05:22;;;;;;;20.92;18.35;;;;;;;;;;4944691;28;20387;-68
2021/12/26 11:07:55;;;;;;;16.20;14.70;;;;;;;;;;4947326;28;20348;-68
2021/12/26 11:10:37;;;;;;;15.98;14.48;;;;;;;;;;4945694;29;20055;-69
2021/12/26 11:13:04;;;;;;;15.93;14.43;;;;;;;;;;4943451;28;20046;-68
2021/12/26 11:15:40;;;;;;;16.30;14.68;;;;;;;;;;4946730;28;20522;-68
2021/12/26 11:18:09;;;;;;;16.77;15.05;;;;;;;;;;4956179;28;20116;-68
2021/12/26 11:20:40;;;;;;;16.25;14.65;;;;;;;;;;4960004;28;20369;-68
2021/12/26 11:23:13;;;;;;;16.08;14.57;;;;;;;;;;4951320;28;20045;-68
2021/12/26 11:25:44;;;;;;;16.63;14.93;;;;;;;;;;4948721;28;20126;-68
2021/12/26 11:28:12;;;;;;;17.08;15.43;;;;;;;;;;4944454;28;20502;-68
2021/12/26 11:30:38;;;;;;;17.25;15.60;;;;;;;;;;4947106;28;20161;-68
2021/12/26 11:33:04;;;;;;;19.90;16.08;;;;;;;;;;4946969;28;20039;-68
2021/12/26 11:35:31;;;;;;;17.55;15.75;;;;;;;;;;4962654;28;20046;-68
2021/12/26 11:37:58;;;;;;;18.20;16.40;;;;;;;;;;4949805;28;20293;-67
2021/12/26 11:40:43;;;;;;;15.95;14.55;;;;;;;;;;4960518;28;20036;-68
2021/12/26 11:44:15;;;;;;;16.05;14.55;;;;;;;;;;4914260;28;20488;-67
2021/12/26 11:47:40;;;;;;;15.75;14.35;;;;;;;;;;4952853;28;20046;-68
2021/12/26 11:50:39;;;;;;;14.73;13.52;;;;;;;;;;4945783;29;20032;-67
2021/12/26 11:53:23;;;;;;;15.82;14.45;;;;;;;;;;4945109;28;20046;-67
2021/12/26 11:56:21;;;;;;;15.45;14.15;;;;;;;;;;4957134;28;20046;-67
2021/12/26 11:59:09;;;;;;;15.35;13.75;;;;;;;;;;4949867;28;20509;-67
2021/12/26 12:01:40;;;;;;;19.35;17.50;;;;;;;;;;4950623;28;20111;-67
2021/12/26 12:04:23;;;;;;;15.35;13.85;;;;;;;;;;4950893;28;20026;-67
2021/12/26 12:06:52;;;;;;;15.80;14.35;;;;;;;;;;4950586;28;20043;-67
2021/12/26 12:09:37;;;;;;;16.70;15.15;;;;;;;;;;4947050;29;20117;-67
2021/12/26 12:12:05;;;;;;;16.27;14.73;;;;;;;;;;4949077;28;20122;-67
2021/12/26 12:14:59;;;;;;;14.02;12.73;;;;;;;;;;4948549;28;20090;-67
2021/12/26 12:17:27;;;;;;;18.98;17.20;;;;;;;;;;4933749;29;20058;-68
2021/12/26 12:20:10;;;;;;;15.07;13.68;;;;;;;;;;4931336;29;20039;-68
2021/12/26 12:22:38;;;;;;;15.50;14.02;;;;;;;;;;4925779;28;20119;-67
2021/12/26 12:25:35;;;;;;;14.90;13.60;;;;;;;;;;4930308;29;20506;-67
2021/12/26 12:28:36;;;;;;;15.27;13.93;;;;;;;;;;4922350;29;20558;-67
2021/12/26 12:31:08;;;;;;;14.43;13.30;;;;;;;;;;4909835;29;20146;-68
2021/12/26 12:33:35;;;;;;;14.77;13.27;;;;;;;;;;4933149;28;20054;-68
2021/12/26 12:36:03;;;;;;;15.20;13.77;;;;;;;;;;4934915;29;20226;-67
2021/12/26 12:38:42;;;;;;;16.83;15.27;;;;;;;;;;4936180;29;20039;-67
2021/12/26 12:41:28;;;;;;;64.60;31.08;;;;;;;;;;4934872;29;20047;-67
2021/12/26 12:43:55;;;;;;;19.08;17.08;;;;;;;;;;4927978;29;20114;-66
2021/12/26 12:46:21;;;;;;;61.38;27.20;;;;;;;;;;4928389;29;20059;-67
2021/12/26 12:49:07;;;;;;;18.70;15.50;;;;;;;;;;4928597;29;20051;-66
2021/12/26 12:51:36;;;;;;;171.63;49.35;;;;;;;;;;4936350;29;20079;-67
2021/12/26 12:54:18;;;;;;;436.45;126.80;;;;;;;;;;4948677;28;20051;-67
2021/12/26 12:56:44;;;;;;;90.88;33.38;;;;;;;;;;4944551;28;20035;-67
2021/12/26 12:59:16;;;;;;;210.63;64.85;;;;;;;;;;4948729;28;20089;-67
2021/12/26 13:01:47;;;;;;;30.67;19.88;;;;;;;;;;4948955;29;20336;-67
2021/12/26 13:04:19;;;;;;;14.02;12.82;;;;;;;;;;4949580;28;20027;-67
2021/12/26 13:06:52;;;;;;;16.42;14.70;;;;;;;;;;4948647;28;20034;-67
2021/12/26 13:09:18;;;;;;;23.10;20.95;;;;;;;;;;4951944;28;20541;-67
2021/12/26 13:11:44;;;;;;;17.30;15.60;;;;;;;;;;4946245;28;20046;-67
2021/12/26 13:14:11;;;;;;;15.73;14.32;;;;;;;;;;4946179;28;20070;-67
2021/12/26 13:16:37;;;;;;;14.60;13.45;;;;;;;;;;4961150;28;20043;-67
2021/12/26 13:19:07;;;;;;;15.10;13.82;;;;;;;;;;4947725;28;20471;-67
2021/12/26 13:21:34;;;;;;;15.38;14.07;;;;;;;;;;4942631;28;20562;-67
2021/12/26 13:23:59;;;;;;;15.32;14.00;;;;;;;;;;4955649;28;20471;-67
2021/12/26 13:26:25;;;;;;;14.65;13.45;;;;;;;;;;4948032;28;20039;-67
2021/12/26 13:28:51;;;;;;;14.82;13.52;;;;;;;;;;4949394;28;20384;-67
2021/12/26 13:31:22;;;;;;;16.45;14.88;;;;;;;;;;4949492;28;20526;-67
2021/12/26 13:33:54;;;;;;;15.10;13.80;;;;;;;;;;4949998;28;20049;-67
2021/12/26 13:36:30;;;;;;;16.25;14.75;;;;;;;;;;4949718;28;20156;-66
2021/12/26 13:38:57;;;;;;;14.98;13.52;;;;;;;;;;4943883;29;20035;-67
2021/12/26 13:41:28;;;;;;;16.52;15.00;;;;;;;;;;4950660;28;20090;-67
2021/12/26 13:43:58;;;;;;;15.50;14.10;;;;;;;;;;4950466;28;20031;-67
2021/12/26 13:46:24;;;;;;;15.27;13.95;;;;;;;;;;4949502;28;20062;-67
2021/12/26 13:48:58;;;;;;;15.57;14.27;;;;;;;;;;4948484;28;20519;-67
2021/12/26 13:51:26;;;;;;;16.70;15.10;;;;;;;;;;4951211;28;20043;-67
2021/12/26 13:54:15;;;;;;;15.93;14.63;;;;;;;;;;4948658;29;20507;-67
2021/12/26 13:56:48;;;;;;;16.65;14.70;;;;;;;;;;4944218;29;20525;-67
2021/12/26 13:59:34;;;;;;;14.95;13.70;;;;;;;;;;4959609;28;20121;-67
2021/12/26 14:02:12;;;;;;;16.63;15.27;;;;;;;;;;4954680;28;20161;-67
2021/12/26 14:04:49;;;;;;;14.25;13.05;;;;;;;;;;4948933;29;20035;-67
2021/12/26 14:07:21;;;;;;;15.45;14.05;;;;;;;;;;4949660;29;20094;-67
2021/12/26 14:09:49;;;;;;;16.75;15.15;;;;;;;;;;4955868;28;20410;-67
2021/12/26 14:12:43;;;;;;;16.50;14.85;;;;;;;;;;4950537;28;20039;-67
2021/12/26 14:15:30;;;;;;;18.15;16.35;;;;;;;;;;4947266;29;20156;-67
2021/12/26 14:18:15;;;;;;;17.00;15.43;;;;;;;;;;4952828;28;20034;-67
2021/12/26 14:20:55;;;;;;;17.70;16.10;;;;;;;;;;4953245;28;20067;-67
2021/12/26 14:23:28;;;;;;;17.48;15.80;;;;;;;;;;4950611;29;20138;-69
2021/12/26 14:25:57;;;;;;;22.90;20.20;;;;;;;;;;4949880;28;20114;-67
2021/12/26 14:28:25;;;;;;;21.10;19.00;;;;;;;;;;4950694;28;20372;-66
2021/12/26 14:30:56;;;;;;;21.00;18.83;;;;;;;;;;4947260;28;20089;-66
2021/12/26 14:33:30;;;;;;;42.22;25.77;;;;;;;;;;4954651;28;20453;-67